Time;durP1;ratioP1;P1;durP2;ratioP2;P2;SDS_P1;SDS_P2;PMS_P1;PMS_P2;Temp;Humidity;BMP_temperature;BMP_pressure;BME280_temperature;BME280_humidity;BME280_pressure;Samples;Min_cycle;Max_cycle;Signal;HPM_P1;HPM_P2
2023/10/23 00:02:24;;;;;;;3.70;2.10;;;13.30;99.90;;;;;;4987673;28;20434;-64
2023/10/23 00:04:49;;;;;;;2.87;2.30;;;13.20;99.90;;;;;;4987748;28;20482;-65
2023/10/23 00:07:16;;;;;;;6.93;2.47;;;13.30;99.90;;;;;;4988317;28;20525;-65
2023/10/23 00:09:41;;;;;;;2.53;2.10;;;13.10;99.90;;;;;;4989517;28;20842;-66
2023/10/23 00:12:08;;;;;;;4.90;2.33;;;13.20;99.90;;;;;;4988095;28;20435;-65
2023/10/23 00:14:34;;;;;;;2.67;2.30;;;13.20;99.90;;;;;;4987609;28;20274;-64
2023/10/23 00:17:00;;;;;;;3.60;2.10;;;13.20;99.90;;;;;;4988187;28;20458;-64
2023/10/23 00:19:26;;;;;;;4.07;3.00;;;13.20;99.90;;;;;;4989158;28;20450;-66
2023/10/23 00:21:53;;;;;;;3.90;2.50;;;13.10;99.90;;;;;;4987618;28;20180;-66
2023/10/23 00:24:19;;;;;;;3.97;2.30;;;13.10;99.90;;;;;;4986868;28;20471;-64
2023/10/23 00:26:45;;;;;;;2.90;2.60;;;13.10;99.90;;;;;;4989242;28;20426;-64
2023/10/23 00:29:10;;;;;;;3.87;2.10;;;13.10;99.90;;;;;;4988389;28;21047;-63
2023/10/23 00:31:36;;;;;;;2.77;2.00;;;13.10;99.90;;;;;;4989204;28;20841;-66
2023/10/23 00:34:02;;;;;;;3.30;2.00;;;13.10;99.90;;;;;;4987056;28;20984;-63
2023/10/23 00:36:27;;;;;;;3.73;2.40;;;13.10;99.90;;;;;;4988759;28;20186;-66
2023/10/23 00:38:53;;;;;;;2.47;2.10;;;13.10;99.90;;;;;;4988203;28;20337;-66
2023/10/23 00:41:19;;;;;;;2.53;2.10;;;13.10;99.90;;;;;;4987763;28;20920;-65
2023/10/23 00:43:44;;;;;;;2.80;2.17;;;13.10;99.90;;;;;;4986967;28;20210;-65
2023/10/23 00:46:20;;;;;;;5.30;2.37;;;13.10;99.90;;;;;;4987784;28;20657;-64
2023/10/23 00:48:47;;;;;;;3.00;2.70;;;13.00;99.90;;;;;;4988957;28;21051;-65
2023/10/23 00:51:14;;;;;;;2.50;1.90;;;13.00;99.90;;;;;;4987699;28;20918;-67
2023/10/23 00:53:42;;;;;;;4.03;2.33;;;13.00;99.90;;;;;;4987446;28;20423;-63
2023/10/23 00:56:09;;;;;;;3.20;2.30;;;13.10;99.90;;;;;;4987978;28;21009;-67
2023/10/23 00:58:40;;;;;;;2.90;2.20;;;13.10;99.90;;;;;;4988213;28;21314;-64
2023/10/23 01:01:09;;;;;;;2.60;2.30;;;13.10;99.90;;;;;;4987919;28;21288;-65
2023/10/23 01:03:35;;;;;;;3.80;2.43;;;13.00;99.90;;;;;;4987601;28;20524;-66
2023/10/23 01:06:01;;;;;;;2.00;1.80;;;13.00;99.90;;;;;;4989269;28;20439;-64
2023/10/23 01:08:27;;;;;;;3.47;2.27;;;13.00;99.90;;;;;;4987542;28;20187;-64
2023/10/23 01:10:55;;;;;;;5.27;2.67;;;13.00;99.90;;;;;;4988100;28;20431;-64
2023/10/23 01:13:21;;;;;;;3.20;2.10;;;13.00;99.90;;;;;;4986605;28;20435;-65
2023/10/23 01:15:47;;;;;;;3.60;2.10;;;13.00;99.90;;;;;;4988646;28;20935;-65
2023/10/23 01:18:12;;;;;;;2.70;2.30;;;12.90;99.90;;;;;;4987636;28;20290;-63
2023/10/23 01:20:40;;;;;;;3.13;2.80;;;12.90;99.90;;;;;;4988057;28;20192;-65
2023/10/23 01:23:06;;;;;;;3.87;3.07;;;12.90;99.90;;;;;;4986348;28;20766;-65
2023/10/23 01:25:31;;;;;;;4.17;2.63;;;12.90;99.90;;;;;;4986208;28;20582;-67
2023/10/23 01:27:57;;;;;;;3.80;2.80;;;12.90;99.90;;;;;;4988158;28;20449;-63
2023/10/23 01:30:23;;;;;;;6.53;2.70;;;12.90;99.90;;;;;;5002778;28;20274;-63
2023/10/23 01:32:48;;;;;;;2.53;2.20;;;12.90;99.90;;;;;;4986118;28;20249;-64
2023/10/23 01:35:14;;;;;;;3.50;2.63;;;12.90;99.90;;;;;;4986972;28;20175;-65
2023/10/23 01:37:41;;;;;;;3.53;2.47;;;12.90;99.90;;;;;;4987984;28;20250;-66
2023/10/23 01:40:08;;;;;;;2.13;1.93;;;12.80;99.90;;;;;;4987736;28;20192;-66
2023/10/23 01:42:34;;;;;;;2.37;2.00;;;12.70;99.90;;;;;;4988247;28;20513;-64
2023/10/23 01:45:00;;;;;;;4.30;2.37;;;12.70;99.90;;;;;;4988586;28;20509;-66
2023/10/23 01:47:27;;;;;;;4.10;2.63;;;12.60;99.90;;;;;;4991223;28;21053;-65
2023/10/23 01:49:53;;;;;;;2.90;2.10;;;12.50;99.90;;;;;;4991040;28;20431;-64
2023/10/23 01:52:19;;;;;;;4.40;2.30;;;12.40;99.90;;;;;;4991498;28;20207;-65
2023/10/23 01:54:45;;;;;;;3.00;2.20;;;12.30;99.90;;;;;;4989256;28;20418;-65
2023/10/23 01:57:12;;;;;;;2.93;2.20;;;12.30;99.90;;;;;;4990978;28;20424;-67
2023/10/23 01:59:39;;;;;;;3.63;2.57;;;12.20;99.90;;;;;;4982240;28;20488;-66
2023/10/23 02:02:05;;;;;;;4.50;2.50;;;12.10;99.90;;;;;;4989610;28;20547;-65
2023/10/23 02:04:31;;;;;;;2.77;2.50;;;12.10;99.90;;;;;;4989720;28;20556;-67
2023/10/23 02:06:57;;;;;;;2.70;2.30;;;12.00;99.90;;;;;;4989184;28;20496;-64
2023/10/23 02:09:23;;;;;;;3.23;2.30;;;12.00;99.90;;;;;;4990966;28;20790;-65
2023/10/23 02:11:49;;;;;;;3.10;2.20;;;11.90;99.90;;;;;;4990636;28;20422;-67
2023/10/23 02:14:15;;;;;;;2.93;2.60;;;11.80;99.90;;;;;;4989676;28;20187;-65
2023/10/23 02:16:40;;;;;;;4.77;3.00;;;11.80;99.90;;;;;;4990444;28;20490;-64
2023/10/23 02:19:06;;;;;;;2.70;2.33;;;11.80;99.90;;;;;;4990345;28;20558;-65
2023/10/23 02:21:32;;;;;;;3.07;2.60;;;11.70;99.90;;;;;;4990961;28;20189;-67
2023/10/23 02:23:58;;;;;;;3.10;2.17;;;11.70;99.90;;;;;;4990128;28;20277;-65
2023/10/23 02:26:24;;;;;;;2.37;2.17;;;11.60;99.90;;;;;;4991053;28;20230;-65
2023/10/23 02:28:50;;;;;;;2.93;2.20;;;11.50;99.90;;;;;;4991629;28;20431;-67
2023/10/23 02:31:17;;;;;;;5.53;2.20;;;11.50;99.90;;;;;;4992116;28;20426;-67
2023/10/23 02:33:43;;;;;;;2.20;2.00;;;11.40;99.90;;;;;;4991640;28;20430;-66
2023/10/23 02:36:08;;;;;;;2.40;2.20;;;11.40;99.90;;;;;;4990368;28;20867;-64
2023/10/23 02:38:34;;;;;;;3.90;2.70;;;11.30;99.90;;;;;;4989992;28;20526;-65
2023/10/23 02:41:00;;;;;;;5.53;2.97;;;11.40;99.90;;;;;;4989614;28;20191;-64
2023/10/23 02:43:26;;;;;;;3.77;3.03;;;11.50;99.90;;;;;;4988726;28;20300;-64
2023/10/23 02:45:52;;;;;;;5.40;2.87;;;11.50;99.90;;;;;;4988786;28;20253;-65
2023/10/23 02:48:17;;;;;;;2.93;2.67;;;11.60;99.90;;;;;;4990346;28;20841;-65
2023/10/23 02:50:55;;;;;;;3.70;2.50;;;11.60;99.90;;;;;;4989608;28;20188;-65
2023/10/23 02:53:21;;;;;;;4.17;2.33;;;11.60;99.90;;;;;;4989043;28;20191;-66
2023/10/23 02:55:48;;;;;;;2.53;2.33;;;11.40;99.90;;;;;;4989558;28;21150;-66
2023/10/23 02:58:13;;;;;;;3.70;2.70;;;11.40;99.90;;;;;;4989834;28;20537;-64
2023/10/23 03:00:42;;;;;;;3.13;2.20;;;11.30;99.90;;;;;;4989491;28;20944;-66
2023/10/23 03:03:08;;;;;;;5.10;2.50;;;11.20;99.90;;;;;;4988157;28;20234;-64
2023/10/23 03:05:34;;;;;;;3.73;3.07;;;11.20;99.90;;;;;;4989248;28;21067;-66
2023/10/23 03:07:59;;;;;;;4.13;2.90;;;11.20;99.90;;;;;;4989564;28;20427;-66
2023/10/23 03:10:26;;;;;;;2.30;2.10;;;11.10;99.90;;;;;;4989490;28;20996;-64
2023/10/23 03:12:52;;;;;;;2.90;2.43;;;11.00;99.90;;;;;;4987881;28;20190;-64
2023/10/23 03:15:18;;;;;;;2.77;2.10;;;10.90;99.90;;;;;;4988783;28;20476;-65
2023/10/23 03:17:43;;;;;;;2.90;2.30;;;10.80;99.90;;;;;;4989138;28;20423;-63
2023/10/23 03:20:11;;;;;;;2.90;1.80;;;10.80;99.90;;;;;;4989060;28;20183;-66
2023/10/23 03:22:37;;;;;;;5.50;2.40;;;10.80;99.90;;;;;;4987896;28;20194;-66
2023/10/23 03:25:04;;;;;;;2.83;2.30;;;10.90;99.90;;;;;;4988594;28;20514;-65
2023/10/23 03:27:31;;;;;;;3.50;2.57;;;11.00;99.90;;;;;;4989460;28;20429;-66
2023/10/23 03:29:56;;;;;;;2.93;2.50;;;11.00;99.90;;;;;;4979273;28;20463;-64
2023/10/23 03:32:23;;;;;;;2.90;1.90;;;10.90;99.90;;;;;;4989422;28;20461;-66
2023/10/23 03:34:49;;;;;;;3.37;2.30;;;10.90;99.90;;;;;;4987739;28;20178;-65
2023/10/23 03:37:15;;;;;;;2.57;2.07;;;10.90;99.90;;;;;;4989344;28;20458;-64
2023/10/23 03:39:41;;;;;;;4.73;3.00;;;10.90;99.90;;;;;;4988146;28;20517;-65
2023/10/23 03:42:08;;;;;;;2.50;1.93;;;10.80;99.90;;;;;;4988589;28;20422;-64
2023/10/23 03:44:34;;;;;;;3.37;2.20;;;10.80;99.90;;;;;;4987571;28;20594;-64
2023/10/23 03:47:00;;;;;;;2.70;2.40;;;10.70;99.90;;;;;;4988057;28;20436;-66
2023/10/23 03:49:27;;;;;;;3.13;2.30;;;10.70;99.90;;;;;;4988573;28;20426;-65
2023/10/23 03:51:53;;;;;;;5.00;2.67;;;10.60;99.90;;;;;;4987271;28;20439;-65
2023/10/23 03:54:19;;;;;;;3.50;2.63;;;10.50;99.90;;;;;;4988567;28;20418;-66
2023/10/23 03:56:44;;;;;;;3.40;2.13;;;10.50;99.90;;;;;;4989937;28;20299;-65
2023/10/23 03:59:10;;;;;;;3.70;2.23;;;10.50;99.90;;;;;;4990970;28;20187;-66
2023/10/23 04:01:36;;;;;;;4.43;2.53;;;10.40;99.90;;;;;;4988527;28;20870;-64
2023/10/23 04:04:01;;;;;;;3.93;3.27;;;10.40;99.90;;;;;;4986655;28;20330;-66
2023/10/23 04:06:27;;;;;;;2.93;2.70;;;10.40;99.90;;;;;;4988381;28;20230;-67
2023/10/23 04:08:53;;;;;;;3.33;2.53;;;10.30;99.90;;;;;;4987154;28;20179;-65
2023/10/23 04:11:19;;;;;;;4.17;2.40;;;10.30;99.90;;;;;;4988719;28;20187;-66
2023/10/23 04:13:44;;;;;;;3.30;3.00;;;10.40;99.90;;;;;;4986741;28;20176;-64
2023/10/23 04:16:10;;;;;;;3.23;2.70;;;10.50;99.90;;;;;;4987668;28;20258;-66
2023/10/23 04:18:36;;;;;;;5.03;2.63;;;10.40;99.90;;;;;;4988490;28;20190;-65
2023/10/23 04:21:09;;;;;;;4.40;2.67;;;10.40;99.90;;;;;;4987292;28;20183;-67
2023/10/23 04:23:39;;;;;;;4.70;2.70;;;10.50;99.90;;;;;;4987678;28;20203;-65
2023/10/23 04:26:06;;;;;;;3.07;2.60;;;10.60;99.90;;;;;;4986945;28;20497;-64
2023/10/23 04:28:32;;;;;;;2.80;2.60;;;10.60;99.90;;;;;;4988483;28;20427;-67
2023/10/23 04:30:58;;;;;;;3.60;2.73;;;10.70;99.90;;;;;;4988331;28;20460;-64
2023/10/23 04:33:25;;;;;;;3.00;2.70;;;10.90;99.90;;;;;;4988457;28;21203;-65
2023/10/23 04:35:58;;;;;;;4.50;3.60;;;11.00;99.90;;;;;;4988618;28;20429;-64
2023/10/23 04:38:24;;;;;;;4.73;3.00;;;11.10;99.90;;;;;;4989517;28;20941;-65
2023/10/23 04:40:53;;;;;;;6.60;3.30;;;11.10;99.90;;;;;;4988371;28;20476;-65
2023/10/23 04:43:19;;;;;;;3.77;3.30;;;11.10;99.90;;;;;;4988018;28;20462;-66
2023/10/23 04:45:44;;;;;;;4.50;3.93;;;11.20;99.90;;;;;;4987468;28;20450;-65
2023/10/23 04:48:10;;;;;;;4.03;3.60;;;11.20;99.90;;;;;;4988517;28;20512;-66
2023/10/23 04:50:38;;;;;;;6.37;3.77;;;11.20;99.90;;;;;;4987105;28;20187;-63
2023/10/23 04:53:04;;;;;;;4.50;4.10;;;11.20;99.90;;;;;;4987457;28;20195;-67
2023/10/23 04:55:34;;;;;;;5.60;4.33;;;11.10;99.90;;;;;;4979921;28;20434;-64
2023/10/23 04:58:01;;;;;;;6.50;4.50;;;11.10;99.90;;;;;;4985956;28;20495;-64
2023/10/23 05:00:27;;;;;;;6.50;4.53;;;11.10;99.90;;;;;;4987870;28;21223;-65
2023/10/23 05:02:53;;;;;;;5.37;4.60;;;11.10;99.90;;;;;;4986186;28;21275;-64
2023/10/23 05:05:19;;;;;;;5.97;5.03;;;11.00;99.90;;;;;;4986940;28;20418;-64
2023/10/23 05:07:44;;;;;;;7.23;4.70;;;11.00;99.90;;;;;;4987968;28;20446;-64
2023/10/23 05:10:11;;;;;;;6.57;5.23;;;11.00;99.90;;;;;;4986113;28;20191;-65
2023/10/23 05:12:37;;;;;;;9.07;6.23;;;11.10;99.90;;;;;;4987815;28;20191;-66
2023/10/23 05:15:04;;;;;;;6.87;6.17;;;11.20;99.90;;;;;;4987752;28;20545;-65
2023/10/23 05:17:29;;;;;;;8.27;6.03;;;11.20;99.90;;;;;;4991407;28;20433;-66
2023/10/23 05:19:55;;;;;;;8.67;6.73;;;11.30;99.90;;;;;;4993241;28;20429;-64
2023/10/23 05:22:21;;;;;;;9.63;7.00;;;11.20;99.90;;;;;;4993378;28;20214;-63
2023/10/23 05:24:47;;;;;;;8.50;6.60;;;11.10;99.90;;;;;;4993132;28;20207;-63
2023/10/23 05:27:14;;;;;;;10.27;6.80;;;11.10;99.90;;;;;;4992088;28;20191;-65
2023/10/23 05:29:40;;;;;;;11.23;7.67;;;11.00;99.90;;;;;;4992555;28;20540;-63
2023/10/23 05:32:06;;;;;;;9.77;7.10;;;11.00;99.90;;;;;;4990857;28;20435;-64
2023/10/23 05:34:33;;;;;;;9.87;7.60;;;11.00;99.90;;;;;;4990985;28;20518;-64
2023/10/23 05:36:59;;;;;;;7.40;6.60;;;11.00;99.90;;;;;;4991468;28;20488;-65
2023/10/23 05:39:25;;;;;;;8.30;7.20;;;10.90;99.90;;;;;;4992027;28;20435;-65
2023/10/23 05:41:51;;;;;;;7.50;6.70;;;10.90;99.90;;;;;;4992023;28;20456;-65
2023/10/23 05:44:17;;;;;;;8.17;7.37;;;10.90;99.90;;;;;;4988400;28;20604;-64
2023/10/23 05:46:43;;;;;;;10.30;8.50;;;10.90;99.90;;;;;;4992795;28;20211;-64
2023/10/23 05:49:08;;;;;;;9.53;8.27;;;10.90;99.90;;;;;;4989973;28;20261;-66
2023/10/23 05:51:34;;;;;;;8.47;7.20;;;10.80;99.90;;;;;;4991462;28;20227;-66
2023/10/23 05:53:59;;;;;;;10.50;7.80;;;10.70;99.90;;;;;;4985976;28;20198;-65
2023/10/23 05:56:25;;;;;;;9.17;7.73;;;10.70;99.90;;;;;;4988924;28;20183;-64
2023/10/23 05:58:51;;;;;;;8.70;7.20;;;10.70;99.90;;;;;;4992252;28;20262;-66
2023/10/23 06:01:17;;;;;;;9.10;8.20;;;10.70;99.90;;;;;;4990741;28;20270;-64
2023/10/23 06:03:43;;;;;;;8.70;7.40;;;10.70;99.90;;;;;;4991040;28;20223;-66
2023/10/23 06:06:09;;;;;;;9.07;7.43;;;10.70;99.90;;;;;;4987093;28;20433;-65
2023/10/23 06:08:35;;;;;;;11.77;7.77;;;10.70;99.90;;;;;;4988987;28;20443;-66
2023/10/23 06:11:01;;;;;;;8.73;7.83;;;10.80;99.90;;;;;;4990076;28;20489;-64
2023/10/23 06:13:27;;;;;;;8.67;7.73;;;10.80;99.90;;;;;;4989362;28;20438;-65
2023/10/23 06:15:53;;;;;;;8.93;7.33;;;10.70;99.90;;;;;;4989699;28;20423;-66
2023/10/23 06:18:19;;;;;;;8.83;7.53;;;10.70;99.90;;;;;;4989151;28;20444;-64
2023/10/23 06:20:45;;;;;;;8.20;7.13;;;10.60;99.90;;;;;;4988666;28;20449;-65
2023/10/23 06:23:11;;;;;;;8.70;6.77;;;10.60;99.90;;;;;;4988436;28;20426;-65
2023/10/23 06:25:37;;;;;;;7.80;6.70;;;10.40;99.90;;;;;;4984707;28;20656;-66
2023/10/23 06:28:03;;;;;;;8.07;6.87;;;10.30;99.90;;;;;;4979274;28;20217;-64
2023/10/23 06:30:29;;;;;;;6.13;5.53;;;10.20;99.90;;;;;;4990047;28;20195;-67
2023/10/23 06:32:55;;;;;;;7.23;5.70;;;10.20;99.90;;;;;;4990380;28;20463;-64
2023/10/23 06:35:21;;;;;;;8.23;5.90;;;10.20;99.90;;;;;;4990059;28;20532;-65
2023/10/23 06:37:48;;;;;;;9.80;6.57;;;10.20;99.90;;;;;;4990990;28;20187;-65
2023/10/23 06:40:14;;;;;;;7.37;6.27;;;10.30;99.90;;;;;;4989881;28;20227;-64
2023/10/23 06:42:39;;;;;;;8.50;6.17;;;10.20;99.90;;;;;;4990444;28;20621;-63
2023/10/23 06:45:06;;;;;;;6.53;5.83;;;10.30;99.90;;;;;;4988289;28;20231;-64
2023/10/23 06:47:32;;;;;;;8.03;5.57;;;10.20;99.90;;;;;;4991179;28;20183;-64
2023/10/23 06:49:59;;;;;;;6.77;5.93;;;10.20;99.90;;;;;;4991498;28;20445;-64
2023/10/23 06:52:25;;;;;;;6.73;5.40;;;10.20;99.90;;;;;;4992220;28;20448;-65
2023/10/23 06:54:51;;;;;;;8.03;5.70;;;10.30;99.90;;;;;;4990502;28;20435;-63
2023/10/23 06:57:16;;;;;;;7.33;6.07;;;10.30;99.90;;;;;;4990404;28;20191;-65
2023/10/23 06:59:42;;;;;;;6.73;5.27;;;10.40;99.90;;;;;;4990881;28;20191;-64
2023/10/23 07:02:09;;;;;;;5.30;4.80;;;10.40;99.90;;;;;;4988965;28;20198;-66
2023/10/23 07:04:34;;;;;;;7.20;5.07;;;10.50;99.90;;;;;;4987843;28;20216;-65
2023/10/23 07:07:00;;;;;;;7.53;5.70;;;10.70;99.90;;;;;;4990311;28;20460;-64
2023/10/23 07:09:26;;;;;;;7.97;5.20;;;10.70;99.90;;;;;;4990157;28;20195;-63
2023/10/23 07:11:52;;;;;;;5.30;4.60;;;10.80;99.90;;;;;;4990915;28;20211;-65
2023/10/23 07:14:18;;;;;;;4.80;4.23;;;10.90;99.90;;;;;;4988458;28;20222;-64
2023/10/23 07:16:47;;;;;;;6.40;5.23;;;11.00;99.90;;;;;;4990069;28;20423;-66
2023/10/23 07:19:12;;;;;;;6.43;5.10;;;11.10;99.90;;;;;;4990361;28;20553;-66
2023/10/23 07:21:38;;;;;;;7.70;5.50;;;11.30;99.90;;;;;;4989196;28;20859;-65
2023/10/23 07:24:04;;;;;;;6.17;4.93;;;11.40;99.90;;;;;;4989466;28;20204;-65
2023/10/23 07:26:30;;;;;;;5.10;4.60;;;11.50;99.90;;;;;;4989579;28;20701;-66
2023/10/23 07:28:55;;;;;;;5.37;4.60;;;11.60;99.90;;;;;;4990108;28;20439;-66
2023/10/23 07:31:21;;;;;;;9.00;4.90;;;11.80;99.90;;;;;;5004558;28;20983;-66
2023/10/23 07:33:47;;;;;;;6.13;4.60;;;11.90;99.90;;;;;;4988855;28;20647;-66
2023/10/23 07:36:14;;;;;;;5.37;4.70;;;12.00;99.90;;;;;;4989718;28;20962;-63
2023/10/23 07:38:42;;;;;;;4.83;4.10;;;12.10;99.90;;;;;;4989222;28;20525;-66
2023/10/23 07:41:12;;;;;;;8.00;4.50;;;12.30;99.90;;;;;;4989043;28;20438;-65
2023/10/23 07:43:38;;;;;;;11.13;4.27;;;12.50;99.90;;;;;;4986584;28;21012;-67
2023/10/23 07:46:09;;;;;;;5.27;4.20;;;12.70;99.90;;;;;;4989586;28;20446;-64
2023/10/23 07:48:36;;;;;;;5.40;4.27;;;12.90;99.90;;;;;;4987437;28;20431;-66
2023/10/23 07:51:03;;;;;;;5.07;4.23;;;13.10;99.90;;;;;;4988806;28;20438;-64
2023/10/23 07:53:31;;;;;;;5.07;4.00;;;13.30;99.90;;;;;;4986571;28;20461;-64
2023/10/23 07:55:58;;;;;;;6.60;4.20;;;13.50;99.90;;;;;;4988733;28;20450;-65
2023/10/23 07:58:23;;;;;;;7.07;4.17;;;13.70;99.90;;;;;;4988565;28;20932;-64
2023/10/23 08:00:53;;;;;;;5.30;4.10;;;13.90;99.90;;;;;;4988228;28;20426;-66
2023/10/23 08:03:19;;;;;;;5.53;4.10;;;14.20;99.90;;;;;;4988472;28;22162;-66
2023/10/23 08:05:46;;;;;;;4.30;3.90;;;14.30;99.90;;;;;;4989567;28;20892;-65
2023/10/23 08:08:12;;;;;;;5.00;4.23;;;14.50;99.90;;;;;;4989543;28;20191;-65
2023/10/23 08:10:38;;;;;;;6.93;4.63;;;14.60;99.90;;;;;;4989195;28;20457;-64
2023/10/23 08:13:04;;;;;;;5.63;4.60;;;14.80;99.90;;;;;;4989943;28;20419;-67
2023/10/23 08:15:30;;;;;;;4.80;4.40;;;14.90;99.90;;;;;;4989100;28;20187;-65
2023/10/23 08:17:55;;;;;;;7.43;4.50;;;15.00;99.90;;;;;;4990056;28;20476;-66
2023/10/23 08:20:21;;;;;;;7.80;4.73;;;15.00;99.90;;;;;;4990542;28;20194;-65
2023/10/23 08:22:47;;;;;;;7.33;4.57;;;15.10;99.90;;;;;;4987967;28;20196;-64
2023/10/23 08:25:12;;;;;;;7.60;4.97;;;15.20;99.90;;;;;;4989463;28;20218;-66
2023/10/23 08:27:38;;;;;;;4.93;4.43;;;15.30;99.90;;;;;;5003894;28;20188;-65
2023/10/23 08:30:04;;;;;;;6.83;4.60;;;15.40;99.90;;;;;;4988595;28;20274;-66
2023/10/23 08:32:30;;;;;;;7.57;5.80;;;15.40;99.90;;;;;;4979852;28;20183;-65
2023/10/23 08:34:56;;;;;;;8.30;5.00;;;15.50;99.90;;;;;;4988192;28;20431;-66
2023/10/23 08:37:22;;;;;;;6.90;4.60;;;15.60;99.90;;;;;;4989543;28;20476;-66
2023/10/23 08:39:48;;;;;;;5.10;4.60;;;15.70;99.90;;;;;;4988448;28;20211;-66
2023/10/23 08:42:14;;;;;;;7.27;4.63;;;15.80;99.90;;;;;;4989589;28;20183;-65
2023/10/23 08:44:40;;;;;;;6.70;4.80;;;15.90;99.90;;;;;;4985247;28;20758;-66
2023/10/23 08:47:06;;;;;;;5.23;4.47;;;15.90;99.90;;;;;;4988742;28;20435;-64
2023/10/23 08:49:32;;;;;;;8.37;5.40;;;16.00;99.90;;;;;;4989536;28;20430;-66
2023/10/23 08:51:59;;;;;;;4.87;4.43;;;15.90;99.90;;;;;;4990194;28;20203;-65
2023/10/23 08:54:27;;;;;;;6.47;4.60;;;16.00;99.90;;;;;;4991894;28;20439;-64
2023/10/23 08:56:59;;;;;;;6.10;5.50;;;16.10;99.90;;;;;;4992143;28;21026;-67
2023/10/23 08:59:25;;;;;;;6.23;4.67;;;16.20;99.90;;;;;;4992968;28;20838;-64
2023/10/23 09:01:50;;;;;;;5.50;5.00;;;16.10;99.90;;;;;;4991833;28;20461;-66
2023/10/23 09:04:16;;;;;;;4.97;4.47;;;16.20;99.90;;;;;;4992364;28;20952;-67
2023/10/23 09:06:42;;;;;;;5.90;4.57;;;16.10;99.90;;;;;;4992834;28;20269;-64
2023/10/23 09:09:08;;;;;;;6.43;4.30;;;16.10;99.90;;;;;;4992168;28;20370;-67
2023/10/23 09:11:41;;;;;;;5.33;4.70;;;16.20;99.90;;;;;;4993227;28;20186;-65
2023/10/23 09:14:07;;;;;;;6.20;4.87;;;16.10;99.90;;;;;;4991203;28;21233;-64
2023/10/23 09:16:33;;;;;;;4.77;4.27;;;16.10;99.90;;;;;;4992873;28;21219;-66
2023/10/23 09:18:58;;;;;;;9.17;4.60;;;16.00;99.90;;;;;;4991389;28;20431;-65
2023/10/23 09:21:24;;;;;;;5.97;5.27;;;16.00;99.90;;;;;;4993167;28;20218;-64
2023/10/23 09:23:53;;;;;;;6.20;4.83;;;16.00;99.90;;;;;;4990154;28;20224;-66
2023/10/23 09:26:20;;;;;;;5.30;4.60;;;15.90;99.90;;;;;;4992376;28;20179;-66
2023/10/23 09:28:47;;;;;;;8.10;5.30;;;15.90;99.90;;;;;;4991914;28;20446;-64
2023/10/23 09:31:13;;;;;;;6.90;4.60;;;16.00;99.90;;;;;;4991657;28;21161;-66
2023/10/23 09:33:39;;;;;;;8.93;4.50;;;16.00;99.90;;;;;;4991540;28;20431;-64
2023/10/23 09:36:08;;;;;;;5.83;4.73;;;16.00;99.90;;;;;;4990466;28;20438;-64
2023/10/23 09:38:34;;;;;;;5.03;4.13;;;16.00;99.90;;;;;;4993072;28;20187;-67
2023/10/23 09:41:00;;;;;;;6.60;4.33;;;16.10;99.90;;;;;;4990605;28;20438;-67
2023/10/23 09:43:26;;;;;;;5.60;4.77;;;16.20;99.90;;;;;;4993682;28;20976;-64
2023/10/23 09:45:56;;;;;;;4.97;4.47;;;16.20;99.90;;;;;;4993391;28;20481;-64
2023/10/23 09:48:23;;;;;;;6.60;4.83;;;16.30;99.90;;;;;;4992941;28;20183;-65
2023/10/23 09:50:49;;;;;;;6.13;4.50;;;16.30;99.90;;;;;;4991517;28;20426;-65
2023/10/23 09:53:17;;;;;;;7.83;4.70;;;16.30;99.90;;;;;;4989956;28;20423;-66
2023/10/23 09:55:44;;;;;;;5.63;4.70;;;16.40;99.90;;;;;;4992180;28;20453;-64
2023/10/23 09:58:17;;;;;;;8.73;4.93;;;16.40;99.90;;;;;;4990509;28;20433;-66
2023/10/23 10:00:46;;;;;;;6.80;5.10;;;16.40;99.90;;;;;;4991746;28;20430;-66
2023/10/23 10:03:16;;;;;;;5.33;4.53;;;16.30;99.90;;;;;;4988468;28;21033;-66
2023/10/23 10:05:49;;;;;;;5.50;4.60;;;16.20;99.90;;;;;;4991310;28;20488;-66
2023/10/23 10:08:17;;;;;;;6.83;4.70;;;16.20;99.90;;;;;;4991008;28;21481;-64
2023/10/23 10:10:43;;;;;;;5.47;4.57;;;16.20;99.90;;;;;;4991607;28;20434;-64
2023/10/23 10:13:13;;;;;;;4.53;4.13;;;16.10;99.90;;;;;;4989861;28;20451;-65
2023/10/23 10:15:39;;;;;;;5.10;4.00;;;16.10;99.90;;;;;;4991648;28;20466;-63
2023/10/23 10:18:05;;;;;;;3.80;3.50;;;16.10;99.90;;;;;;4991429;28;20478;-65
2023/10/23 10:20:31;;;;;;;5.50;3.93;;;16.10;99.90;;;;;;4991107;28;20426;-64
2023/10/23 10:23:04;;;;;;;4.87;4.47;;;16.10;99.90;;;;;;4990217;28;20661;-65
2023/10/23 10:25:31;;;;;;;3.70;3.30;;;16.10;99.90;;;;;;4991762;28;20479;-64
2023/10/23 10:27:59;;;;;;;4.40;3.23;;;16.00;99.90;;;;;;4989946;28;20445;-66
2023/10/23 10:30:57;;;;;;;3.80;3.40;;;16.00;99.90;;;;;;4991513;28;20484;-67
2023/10/23 10:33:31;;;;;;;3.30;3.00;;;15.90;99.90;;;;;;4945670;28;20438;-65
2023/10/23 10:36:09;;;;;;;3.47;2.63;;;15.80;99.90;;;;;;4997003;28;20430;-67
2023/10/23 10:38:35;;;;;;;5.90;3.13;;;15.70;99.90;;;;;;4990620;28;20431;-64
2023/10/23 10:41:16;;;;;;;3.73;2.87;;;15.70;99.90;;;;;;4990338;28;20986;-64
2023/10/23 10:43:45;;;;;;;3.03;2.73;;;15.80;99.90;;;;;;4988215;28;20241;-65
2023/10/23 10:46:24;;;;;;;6.10;3.00;;;15.80;99.90;;;;;;4989871;28;20426;-65
2023/10/23 10:48:52;;;;;;;4.13;2.67;;;15.80;99.90;;;;;;4991001;28;21331;-64
2023/10/23 10:51:25;;;;;;;2.83;2.47;;;15.80;99.90;;;;;;4989723;28;20431;-64
2023/10/23 10:54:07;;;;;;;3.67;2.23;;;15.80;99.90;;;;;;4988941;28;20445;-66
2023/10/23 10:56:33;;;;;;;2.50;2.30;;;15.80;99.90;;;;;;4990963;28;20434;-64
2023/10/23 10:59:03;;;;;;;4.00;2.13;;;15.80;99.90;;;;;;4990476;28;20442;-64
2023/10/23 11:01:30;;;;;;;3.30;2.37;;;15.70;99.90;;;;;;4990672;28;20463;-64
2023/10/23 11:03:55;;;;;;;3.40;2.40;;;15.70;99.90;;;;;;4990012;28;20547;-65
2023/10/23 11:06:21;;;;;;;3.23;2.27;;;15.70;99.90;;;;;;4990396;28;21232;-65
2023/10/23 11:08:47;;;;;;;4.93;2.80;;;15.70;99.90;;;;;;4991092;28;20219;-66
2023/10/23 11:11:12;;;;;;;3.80;2.70;;;15.80;99.90;;;;;;4991143;28;20183;-65
2023/10/23 11:13:40;;;;;;;2.57;2.37;;;15.80;99.90;;;;;;4991051;28;20207;-65
2023/10/23 11:16:06;;;;;;;3.53;2.30;;;15.80;99.90;;;;;;4989707;28;20198;-64
2023/10/23 11:18:32;;;;;;;3.90;2.17;;;15.80;99.90;;;;;;4989642;28;20793;-64
2023/10/23 11:21:00;;;;;;;3.90;2.73;;;15.80;99.90;;;;;;4990303;28;20526;-66
2023/10/23 11:23:29;;;;;;;4.00;2.30;;;15.90;99.90;;;;;;4989265;28;20561;-66
2023/10/23 11:25:55;;;;;;;3.60;2.60;;;15.90;99.90;;;;;;4990295;28;20434;-63
2023/10/23 11:28:22;;;;;;;4.33;2.40;;;15.90;99.90;;;;;;4988910;28;21345;-66
2023/10/23 11:30:49;;;;;;;4.13;2.50;;;15.90;99.90;;;;;;4990114;28;21102;-66
2023/10/23 11:33:18;;;;;;;3.43;2.40;;;15.90;99.90;;;;;;4988851;28;20474;-66
2023/10/23 11:35:44;;;;;;;3.63;2.70;;;15.80;99.90;;;;;;4990632;28;20953;-64
2023/10/23 11:38:19;;;;;;;2.53;2.20;;;15.80;99.90;;;;;;4989913;28;20523;-66
2023/10/23 11:40:45;;;;;;;3.07;2.40;;;15.80;99.90;;;;;;4990197;28;20517;-67
2023/10/23 11:43:16;;;;;;;7.17;2.87;;;15.70;99.90;;;;;;4988771;28;20809;-65
2023/10/23 11:45:43;;;;;;;2.83;2.20;;;15.80;99.90;;;;;;4988167;28;20450;-66
2023/10/23 11:48:11;;;;;;;3.10;2.80;;;15.80;99.90;;;;;;4990292;28;20475;-66
2023/10/23 11:50:39;;;;;;;4.10;2.43;;;15.90;99.90;;;;;;4989295;28;20430;-67
2023/10/23 11:53:04;;;;;;;2.57;2.37;;;15.90;99.90;;;;;;4988668;28;20435;-64
2023/10/23 11:55:31;;;;;;;3.20;2.23;;;15.80;99.90;;;;;;4989560;28;21140;-66
2023/10/23 11:57:56;;;;;;;4.27;2.67;;;15.80;99.90;;;;;;4988476;28;20269;-64
2023/10/23 12:00:23;;;;;;;4.40;2.40;;;15.80;99.90;;;;;;4989957;28;20427;-66
2023/10/23 12:02:49;;;;;;;2.43;2.20;;;15.70;99.90;;;;;;4989046;28;20178;-65
2023/10/23 12:05:19;;;;;;;4.73;2.80;;;15.80;99.90;;;;;;4988915;28;20581;-67
2023/10/23 12:07:47;;;;;;;4.33;2.70;;;15.70;99.90;;;;;;4990128;28;20435;-64
2023/10/23 12:10:14;;;;;;;3.33;2.47;;;15.80;99.90;;;;;;4989871;28;20489;-64
2023/10/23 12:12:41;;;;;;;3.37;3.07;;;15.80;99.90;;;;;;4989169;28;20430;-65
2023/10/23 12:15:12;;;;;;;2.80;2.50;;;15.80;99.90;;;;;;4987660;28;20437;-63
2023/10/23 12:17:38;;;;;;;2.90;2.47;;;15.80;99.90;;;;;;4988904;28;20430;-63
2023/10/23 12:20:10;;;;;;;3.20;2.73;;;15.80;99.90;;;;;;4989492;28;20429;-65
2023/10/23 12:22:46;;;;;;;2.97;2.63;;;15.80;99.90;;;;;;4979493;28;20430;-65
2023/10/23 12:25:13;;;;;;;2.70;2.50;;;15.80;99.90;;;;;;4988714;28;20473;-65
2023/10/23 12:27:40;;;;;;;3.00;2.43;;;15.80;99.90;;;;;;4988107;28;20454;-65
2023/10/23 12:30:07;;;;;;;2.37;2.17;;;15.70;99.90;;;;;;4989398;28;20442;-64
2023/10/23 12:32:34;;;;;;;3.33;2.73;;;15.70;99.90;;;;;;4987791;28;20430;-64
2023/10/23 12:35:03;;;;;;;2.60;2.40;;;15.60;99.90;;;;;;4988862;28;20533;-65
2023/10/23 12:37:32;;;;;;;2.23;2.10;;;15.70;99.90;;;;;;4989498;28;20489;-63
2023/10/23 12:40:00;;;;;;;4.40;1.80;;;15.70;99.90;;;;;;4989962;28;20434;-64
2023/10/23 12:42:28;;;;;;;2.37;2.07;;;15.70;99.90;;;;;;4989328;28;20960;-64
2023/10/23 12:44:55;;;;;;;1.60;1.50;;;15.70;99.90;;;;;;4986248;28;20490;-66